Time;durP1;ratioP1;P1;durP2;ratioP2;P2;SDS_P1;SDS_P2;PMS_P1;PMS_P2;Temp;Humidity;BMP_temperature;BMP_pressure;BME280_temperature;BME280_humidity;BME280_pressure;Samples;Min_cycle;Max_cycle;Signal;HPM_P1;HPM_P2
2023/10/11 00:00:54;;;;;;;;;;;;;;;;;;103632;1285;61717;-48
2023/10/11 00:05:54;;;;;;;5.50;4.50;;;;;;;;;;103731;1286;61469;-48
2023/10/11 00:08:19;;;;;;;4.50;4.00;;;;;;;;;;103787;1282;61626;-48
2023/10/11 00:10:44;;;;;;;;;;;;;;;;;;103794;1282;61573;-48
2023/10/11 00:13:10;;;;;;;5.50;4.00;;;;;;;;;;103792;1282;61721;-49
2023/10/11 00:15:36;;;;;;;4.90;3.80;;;;;;;;;;103774;1286;61648;-48
2023/10/11 00:18:01;;;;;;;5.40;4.30;;;;;;;;;;103818;1286;61663;-48
2023/10/11 00:20:46;;;;;;;6.30;4.00;;;;;;;;;;103772;1282;61656;-49
2023/10/11 00:23:12;;;;;;;4.80;4.10;;;;;;;;;;103783;1282;61625;-49
2023/10/11 00:25:39;;;;;;;5.80;3.80;;;;;;;;;;103608;1285;61635;-46
2023/10/11 00:28:07;;;;;;;4.50;3.90;;;;;;;;;;103675;1282;61698;-48
2023/10/11 00:30:36;;;;;;;5.30;4.30;;;;;;;;;;103914;1282;61643;-48
2023/10/11 00:33:03;;;;;;;4.50;3.90;;;;;;;;;;103988;1286;62117;-49
2023/10/11 00:35:32;;;;;;;4.20;3.80;;;;;;;;;;103756;1282;61605;-49
2023/10/11 00:37:59;;;;;;;4.80;3.80;;;;;;;;;;103772;1284;61705;-51
2023/10/11 00:40:25;;;;;;;4.30;3.50;;;;;;;;;;103643;1287;61651;-49
2023/10/11 00:42:51;;;;;;;4.30;3.50;;;;;;;;;;103745;1282;61709;-48
2023/10/11 00:45:17;;;;;;;4.60;3.70;;;;;;;;;;103763;1282;61554;-50
2023/10/11 00:47:45;;;;;;;4.70;3.60;;;;;;;;;;103798;1282;61708;-49
2023/10/11 00:50:14;;;;;;;4.40;4.00;;;;;;;;;;103806;1285;61530;-48
2023/10/11 00:52:41;;;;;;;4.40;3.60;;;;;;;;;;103757;1282;61810;-49
2023/10/11 00:55:13;;;;;;;4.80;3.80;;;;;;;;;;103758;1282;61602;-49
2023/10/11 00:57:39;;;;;;;4.50;3.60;;;;;;;;;;103835;1282;61703;-50
2023/10/11 01:00:04;;;;;;;3.90;3.50;;;;;;;;;;103631;1282;61635;-47
2023/10/11 01:02:31;;;;;;;;;;;;;;;;;;103861;1282;61975;-50
2023/10/11 01:04:58;;;;;;;4.20;3.20;;;;;;;;;;103684;1282;61717;-50
2023/10/11 01:07:23;;;;;;;4.50;3.70;;;;;;;;;;103788;1282;61778;-51
2023/10/11 01:09:50;;;;;;;3.80;3.20;;;;;;;;;;103821;1282;61741;-48
2023/10/11 01:12:15;;;;;;;4.30;3.50;;;;;;;;;;103781;1282;61693;-49
2023/10/11 01:14:56;;;;;;;3.90;3.30;;;;;;;;;;103746;1282;62060;-48
2023/10/11 01:17:23;;;;;;;4.70;3.60;;;;;;;;;;103852;1282;62003;-50
2023/10/11 01:19:51;;;;;;;4.00;3.40;;;;;;;;;;103832;1284;61552;-49
2023/10/11 01:22:17;;;;;;;3.90;3.50;;;;;;;;;;103900;1282;61617;-48
2023/10/11 01:24:43;;;;;;;;;;;;;;;;;;103746;1282;61643;-39
2023/10/11 01:27:13;;;;;;;4.20;3.30;;;;;;;;;;103693;1285;61697;-39
2023/10/11 01:29:38;;;;;;;4.00;3.20;;;;;;;;;;103756;1282;61541;-39
2023/10/11 01:32:04;;;;;;;3.90;3.20;;;;;;;;;;103869;1282;61641;-39
2023/10/11 01:34:30;;;;;;;3.90;3.20;;;;;;;;;;103950;1282;61719;-38
2023/10/11 01:36:57;;;;;;;3.60;3.10;;;;;;;;;;103829;1282;61696;-43
2023/10/11 01:39:22;;;;;;;4.20;3.50;;;;;;;;;;103832;1285;61928;-38
2023/10/11 01:41:49;;;;;;;3.60;3.10;;;;;;;;;;103931;1282;61758;-40
2023/10/11 01:44:14;;;;;;;3.90;3.40;;;;;;;;;;103853;1282;61637;-38
2023/10/11 01:46:40;;;;;;;4.20;3.50;;;;;;;;;;103788;1282;61749;-39
2023/10/11 01:49:09;;;;;;;4.90;3.30;;;;;;;;;;103802;1283;61705;-38
2023/10/11 01:51:46;;;;;;;4.30;3.80;;;;;;;;;;103607;1287;62281;-38
2023/10/11 01:54:11;;;;;;;4.50;3.50;;;;;;;;;;103752;1283;61589;-38
2023/10/11 01:56:38;;;;;;;5.80;3.30;;;;;;;;;;103771;1282;61729;-38
2023/10/11 01:59:04;;;;;;;3.80;3.40;;;;;;;;;;103758;1282;61658;-39
2023/10/11 02:01:38;;;;;;;4.10;3.30;;;;;;;;;;103792;1282;61729;-38
2023/10/11 02:04:04;;;;;;;4.20;3.10;;;;;;;;;;103755;1282;61619;-38
2023/10/11 02:06:31;;;;;;;4.40;3.60;;;;;;;;;;103870;1282;61716;-39
2023/10/11 02:08:57;;;;;;;4.70;3.40;;;;;;;;;;103647;1282;61704;-39
2023/10/11 02:11:25;;;;;;;3.90;3.30;;;;;;;;;;103718;1282;127073;-38
2023/10/11 02:13:51;;;;;;;3.80;3.40;;;;;;;;;;103922;1286;61909;-38
2023/10/11 02:16:16;;;;;;;;;;;;;;;;;;103783;1286;61730;-39
2023/10/11 02:18:42;;;;;;;4.30;3.30;;;;;;;;;;103645;1287;61707;-37
2023/10/11 02:21:07;;;;;;;3.80;3.40;;;;;;;;;;103691;1283;61712;-38
2023/10/11 02:23:39;;;;;;;4.70;3.00;;;;;;;;;;103768;1283;62152;-39
2023/10/11 02:26:05;;;;;;;4.10;3.30;;;;;;;;;;103673;1282;61615;-39
2023/10/11 02:28:30;;;;;;;4.40;3.50;;;;;;;;;;103826;1282;61713;-38
2023/10/11 02:30:56;;;;;;;3.60;3.10;;;;;;;;;;103760;1282;61796;-38
2023/10/11 02:33:22;;;;;;;4.00;3.50;;;;;;;;;;103756;1282;61621;-39
2023/10/11 02:35:56;;;;;;;4.50;3.60;;;;;;;;;;103856;1282;61633;-39
2023/10/11 02:38:23;;;;;;;4.80;3.20;;;;;;;;;;103833;1282;61627;-38
2023/10/11 02:40:55;;;;;;;3.70;3.20;;;;;;;;;;103731;1282;61688;-38
2023/10/11 02:43:21;;;;;;;4.20;3.10;;;;;;;;;;103750;1286;62034;-38
2023/10/11 02:45:47;;;;;;;3.60;3.20;;;;;;;;;;103736;1284;61594;-38
2023/10/11 02:48:12;;;;;;;3.70;3.20;;;;;;;;;;103626;1287;61730;-38
2023/10/11 02:50:37;;;;;;;3.80;3.10;;;;;;;;;;103775;1285;61720;-38
2023/10/11 02:53:21;;;;;;;3.50;3.20;;;;;;;;;;103781;1282;61719;-38
2023/10/11 02:55:47;;;;;;;4.00;3.20;;;;;;;;;;103726;1282;61502;-38
2023/10/11 02:58:21;;;;;;;4.80;3.60;;;;;;;;;;103818;1282;61732;-50
2023/10/11 03:00:46;;;;;;;3.50;3.00;;;;;;;;;;103708;1282;61581;-51
2023/10/11 03:03:15;;;;;;;4.20;3.50;;;;;;;;;;103765;1282;63263;-48
2023/10/11 03:05:40;;;;;;;4.90;3.30;;;;;;;;;;103786;1288;61634;-49
2023/10/11 03:08:16;;;;;;;4.30;3.00;;;;;;;;;;103807;1282;61707;-48
2023/10/11 03:10:46;;;;;;;4.20;3.00;;;;;;;;;;103813;1282;61594;-49
2023/10/11 03:13:19;;;;;;;4.20;3.10;;;;;;;;;;103863;1287;62137;-49
2023/10/11 03:15:54;;;;;;;4.10;3.30;;;;;;;;;;103795;1282;61597;-48
2023/10/11 03:18:25;;;;;;;4.50;3.10;;;;;;;;;;103783;1282;61624;-48
2023/10/11 03:21:54;;;;;;;3.60;3.20;;;;;;;;;;104269;1286;61719;-51
2023/10/11 03:23:49;;;;;;;4.10;3.00;;;;;;;;;;103549;1282;61619;-48
2023/10/11 03:28:58;;;;;;;4.40;3.60;;;;;;;;;;103792;1282;61485;-48
2023/10/11 03:31:31;;;;;;;3.30;2.90;;;;;;;;;;103841;1282;61688;-48
2023/10/11 03:34:00;;;;;;;4.20;3.10;;;;;;;;;;103749;1282;61622;-49
2023/10/11 03:36:34;;;;;;;4.10;3.50;;;;;;;;;;103790;1282;61718;-38
2023/10/11 03:39:08;;;;;;;3.80;3.20;;;;;;;;;;103897;1288;61650;-39
2023/10/11 03:41:35;;;;;;;4.50;3.00;;;;;;;;;;103733;1284;61596;-38
2023/10/11 03:44:09;;;;;;;3.70;3.10;;;;;;;;;;103643;1282;62111;-37
2023/10/11 03:46:35;;;;;;;4.10;3.30;;;;;;;;;;103743;1287;61654;-38
2023/10/11 03:51:43;;;;;;;3.30;2.90;;;;;;;;;;103697;1282;61624;-49
2023/10/11 03:54:13;;;;;;;4.90;3.40;;;;;;;;;;103701;1282;61702;-47
2023/10/11 03:56:45;;;;;;;3.90;3.20;;;;;;;;;;104996;1282;61577;-49
2023/10/11 03:59:12;;;;;;;3.80;3.10;;;;;;;;;;103907;1287;63907;-49
2023/10/11 04:01:37;;;;;;;3.30;3.00;;;;;;;;;;103928;1283;61628;-48
2023/10/11 04:04:05;;;;;;;3.70;3.10;;;;;;;;;;103727;1287;61720;-48
2023/10/11 04:06:33;;;;;;;4.20;3.40;;;;;;;;;;103871;1286;61686;-48
2023/10/11 04:09:02;;;;;;;4.00;3.00;;;;;;;;;;103982;1281;61695;-50
2023/10/11 04:11:36;;;;;;;3.50;2.90;;;;;;;;;;103579;1282;61609;-48
2023/10/11 04:14:02;;;;;;;3.60;3.10;;;;;;;;;;103793;1282;61997;-54
2023/10/11 04:16:28;;;;;;;4.50;3.30;;;;;;;;;;103761;1286;61714;-49
2023/10/11 04:18:53;;;;;;;4.30;3.20;;;;;;;;;;103750;1286;61729;-51
2023/10/11 04:24:06;;;;;;;3.40;2.70;;;;;;;;;;103623;1282;61634;-49
2023/10/11 04:28:58;;;;;;;;;;;;;;;;;;103653;1284;61782;-49
2023/10/11 04:31:36;;;;;;;4.80;3.40;;;;;;;;;;103839;1282;61721;-48
2023/10/11 04:34:02;;;;;;;3.70;3.20;;;;;;;;;;103749;1282;61706;-48
2023/10/11 04:36:28;;;;;;;;;;;;;;;;;;103833;1286;61718;-48
2023/10/11 04:39:01;;;;;;;;;;;;;;;;;;103795;1282;61634;-48
2023/10/11 04:41:36;;;;;;;4.20;3.10;;;;;;;;;;103820;1282;61611;-49
2023/10/11 04:44:13;;;;;;;5.60;3.90;;;;;;;;;;103832;1283;62086;-48
2023/10/11 04:46:38;;;;;;;3.60;3.00;;;;;;;;;;103763;1285;61611;-48
2023/10/11 04:49:19;;;;;;;4.80;3.30;;;;;;;;;;103721;1282;61725;-48
2023/10/11 04:51:47;;;;;;;4.20;3.50;;;;;;;;;;103635;1287;61602;-49
2023/10/11 04:54:13;;;;;;;5.40;3.30;;;;;;;;;;103770;1287;61710;-49
2023/10/11 04:59:59;;;;;;;3.60;3.10;;;;;;;;;;103756;1282;61487;-48
2023/10/11 05:02:07;;;;;;;3.30;3.00;;;;;;;;;;103796;1282;61794;-47
2023/10/11 05:04:33;;;;;;;3.60;3.00;;;;;;;;;;103717;1282;61592;-48
2023/10/11 05:07:03;;;;;;;4.10;3.70;;;;;;;;;;103838;1282;61716;-50
2023/10/11 05:09:38;;;;;;;3.90;3.50;;;;;;;;;;103780;1287;61714;-51
2023/10/11 05:14:29;;;;;;;;;;;;;;;;;;103768;1283;61661;-48
2023/10/11 05:19:38;;;;;;;4.30;3.50;;;;;;;;;;103715;1286;61608;-49
2023/10/11 05:22:03;;;;;;;4.00;3.40;;;;;;;;;;103817;1287;61691;-48
2023/10/11 05:24:43;;;;;;;3.90;3.20;;;;;;;;;;103793;1286;61653;-48
2023/10/11 05:27:35;;;;;;;4.10;3.10;;;;;;;;;;103792;1282;61680;-48
2023/10/11 05:32:54;;;;;;;3.70;3.30;;;;;;;;;;103802;1282;61615;-48
2023/10/11 05:35:24;;;;;;;3.50;2.80;;;;;;;;;;103809;1282;61558;-49
2023/10/11 05:51:30;;;;;;;4.00;3.30;;;;;;;;;;103648;1287;61549;-38
2023/10/11 05:53:56;;;;;;;4.60;3.00;;;;;;;;;;103539;1286;61876;-38
2023/10/11 05:56:21;;;;;;;4.20;3.00;;;;;;;;;;103679;1285;61672;-38
2023/10/11 05:58:53;;;;;;;5.70;3.70;;;;;;;;;;103752;1285;61771;-38
2023/10/11 06:01:21;;;;;;;4.50;3.50;;;;;;;;;;103753;1286;61580;-38
2023/10/11 06:03:48;;;;;;;8.90;4.50;;;;;;;;;;103857;1287;61697;-47
2023/10/11 06:09:46;;;;;;;10.10;4.80;;;;;;;;;;103586;1289;599046;-60
2023/10/11 06:12:23;;;;;;;10.10;4.20;;;;;;;;;;105135;1290;60160;-52
2023/10/11 06:14:52;;;;;;;14.40;4.50;;;;;;;;;;104135;1283;60226;-48
2023/10/11 06:17:21;;;;;;;8.70;4.30;;;;;;;;;;103224;1296;60286;-45
2023/10/11 06:19:56;;;;;;;14.50;5.00;;;;;;;;;;103384;1290;60426;-48
2023/10/11 06:29:58;;;;;;;8.90;4.50;;;;;;;;;;103157;1290;600204;-50
2023/10/11 06:32:23;;;;;;;9.10;4.90;;;;;;;;;;103424;1291;60272;-52
2023/10/11 06:34:50;;;;;;;9.10;4.70;;;;;;;;;;103263;1292;60199;-52
2023/10/11 06:37:18;;;;;;;7.40;4.60;;;;;;;;;;103297;1290;60080;-51
2023/10/11 06:42:13;;;;;;;12.60;4.70;;;;;;;;;;103125;1292;60323;-49
2023/10/11 06:44:41;;;;;;;13.00;4.30;;;;;;;;;;103259;1287;85469;-51
2023/10/11 06:47:06;;;;;;;8.90;4.40;;;;;;;;;;103139;1292;60565;-49
2023/10/11 06:49:40;;;;;;;10.40;4.70;;;;;;;;;;103316;1287;60376;-42
2023/10/11 06:52:11;;;;;;;14.40;4.80;;;;;;;;;;103477;1289;60235;-50
2023/10/11 06:54:36;;;;;;;10.70;4.20;;;;;;;;;;103392;1289;61343;-42
2023/10/11 06:57:02;;;;;;;12.80;4.30;;;;;;;;;;103278;1288;60918;-53
2023/10/11 06:59:28;;;;;;;6.60;4.30;;;;;;;;;;103468;1288;60898;-49
2023/10/11 07:01:53;;;;;;;8.80;4.30;;;;;;;;;;103436;1289;60879;-47
2023/10/11 07:04:18;;;;;;;13.50;4.50;;;;;;;;;;103664;1288;60908;-42
2023/10/11 07:06:46;;;;;;;10.10;4.20;;;;;;;;;;103541;1287;60934;-42
2023/10/11 07:09:19;;;;;;;7.60;4.10;;;;;;;;;;103523;1291;60776;-52
2023/10/11 07:12:28;;;;;;;7.20;3.80;;;;;;;;;;103385;1289;60793;-48
2023/10/11 07:14:32;;;;;;;12.50;4.30;;;;;;;;;;103412;1291;61001;-43
2023/10/11 07:17:01;;;;;;;10.90;4.00;;;;;;;;;;103462;1289;60776;-49
2023/10/11 07:19:26;;;;;;;15.80;4.50;;;;;;;;;;103504;1288;60886;-44
2023/10/11 07:22:02;;;;;;;10.70;4.10;;;;;;;;;;103486;1288;60941;-44
2023/10/11 07:26:56;;;;;;;8.30;3.90;;;;;;;;;;103489;1289;60709;-42
2023/10/11 07:29:21;;;;;;;8.50;3.90;;;;;;;;;;103445;1286;60888;-48
2023/10/11 07:31:49;;;;;;;14.60;4.50;;;;;;;;;;103498;1289;60888;-43
2023/10/11 07:34:20;;;;;;;7.20;3.90;;;;;;;;;;103446;1289;60799;-42
2023/10/11 07:36:48;;;;;;;7.30;3.70;;;;;;;;;;103499;1289;61199;-44
2023/10/11 07:42:36;;;;;;;9.20;3.60;;;;;;;;;;103210;1291;599132;-47
2023/10/11 07:45:07;;;;;;;9.10;4.30;;;;;;;;;;103540;1291;61787;-49
2023/10/11 07:47:34;;;;;;;16.20;3.60;;;;;;;;;;103442;1289;60175;-42
2023/10/11 07:49:59;;;;;;;10.40;4.00;;;;;;;;;;103506;1289;60584;-50
2023/10/11 07:52:25;;;;;;;11.20;3.40;;;;;;;;;;103456;1289;60344;-52
2023/10/11 07:54:51;;;;;;;13.10;4.40;;;;;;;;;;103457;1287;60204;-47
2023/10/11 07:57:17;;;;;;;10.80;3.80;;;;;;;;;;103597;1286;102502;-42
2023/10/11 07:59:42;;;;;;;;;;;;;;;;;;103651;1291;60343;-43
2023/10/11 08:02:08;;;;;;;5.60;3.50;;;;;;;;;;103672;1290;60293;-42
2023/10/11 08:04:36;;;;;;;7.70;3.50;;;;;;;;;;103728;1286;60715;-43
2023/10/11 08:07:06;;;;;;;10.50;3.90;;;;;;;;;;103540;1284;60783;-42
2023/10/11 08:09:55;;;;;;;12.40;3.90;;;;;;;;;;103691;1286;60862;-50
2023/10/11 08:12:20;;;;;;;8.60;3.40;;;;;;;;;;103605;1289;61109;-49
2023/10/11 08:14:46;;;;;;;9.20;3.80;;;;;;;;;;103768;1291;60712;-49
2023/10/11 08:17:12;;;;;;;11.90;4.20;;;;;;;;;;103644;1290;60907;-50
2023/10/11 08:19:37;;;;;;;9.00;3.50;;;;;;;;;;103717;1290;61281;-50
2023/10/11 08:22:09;;;;;;;11.80;3.70;;;;;;;;;;103562;1291;60900;-42
2023/10/11 08:24:46;;;;;;;10.90;3.70;;;;;;;;;;103611;1288;60799;-48
2023/10/11 08:27:12;;;;;;;10.60;3.80;;;;;;;;;;103708;1288;60822;-49
2023/10/11 08:29:38;;;;;;;8.00;3.70;;;;;;;;;;103739;1289;60845;-42
2023/10/11 08:32:06;;;;;;;7.70;3.50;;;;;;;;;;103729;1288;60907;-42
2023/10/11 08:34:31;;;;;;;6.60;3.00;;;;;;;;;;103790;1288;60693;-53
2023/10/11 08:36:57;;;;;;;8.60;3.60;;;;;;;;;;103715;1288;60917;-42
2023/10/11 08:39:35;;;;;;;9.00;3.50;;;;;;;;;;103747;1288;60901;-50
2023/10/11 08:42:08;;;;;;;6.50;3.50;;;;;;;;;;103691;1289;60861;-43
2023/10/11 08:44:33;;;;;;;8.00;3.30;;;;;;;;;;103729;1288;60868;-42
2023/10/11 08:47:01;;;;;;;8.20;3.10;;;;;;;;;;103737;1288;60846;-43
2023/10/11 08:49:26;;;;;;;5.80;3.60;;;;;;;;;;103799;1288;60802;-52
2023/10/11 08:51:53;;;;;;;7.20;3.20;;;;;;;;;;103723;1290;60901;-43
2023/10/11 08:54:25;;;;;;;5.20;3.20;;;;;;;;;;103650;1289;60978;-49
2023/10/11 08:56:57;;;;;;;7.40;3.50;;;;;;;;;;103624;1286;60822;-43
2023/10/11 08:59:27;;;;;;;7.70;3.40;;;;;;;;;;103778;1289;60763;-43
2023/10/11 09:01:59;;;;;;;5.50;3.00;;;;;;;;;;103676;1291;60875;-48
2023/10/11 09:04:27;;;;;;;10.50;3.40;;;;;;;;;;103721;1292;60761;-42
2023/10/11 09:06:57;;;;;;;8.60;3.70;;;;;;;;;;103787;1285;61353;-42
2023/10/11 09:09:41;;;;;;;6.70;3.90;;;;;;;;;;103664;1291;60808;-43
2023/10/11 09:12:26;;;;;;;7.20;3.20;;;;;;;;;;103734;1289;60818;-50
2023/10/11 09:15:03;;;;;;;7.90;3.60;;;;;;;;;;103735;1289;60863;-51
2023/10/11 09:17:29;;;;;;;4.60;2.80;;;;;;;;;;103746;1289;60876;-44
2023/10/11 09:19:58;;;;;;;7.40;3.30;;;;;;;;;;103722;1286;60968;-53
2023/10/11 09:22:23;;;;;;;7.10;3.00;;;;;;;;;;103783;1289;60770;-45
2023/10/11 09:25:05;;;;;;;7.20;3.30;;;;;;;;;;103663;1286;60894;-46
2023/10/11 09:27:42;;;;;;;10.20;3.80;;;;;;;;;;103608;1291;60767;-43
2023/10/11 09:30:19;;;;;;;14.30;5.00;;;;;;;;;;103722;1289;60850;-49
2023/10/11 09:32:48;;;;;;;15.60;4.60;;;;;;;;;;103583;1290;60945;-43
2023/10/11 09:35:29;;;;;;;11.60;4.40;;;;;;;;;;103622;1286;60831;-43
2023/10/11 09:37:58;;;;;;;26.00;5.20;;;;;;;;;;103489;1292;61189;-42
2023/10/11 09:40:30;;;;;;;15.40;5.10;;;;;;;;;;103687;1289;60767;-51
2023/10/11 09:43:00;;;;;;;12.60;4.80;;;;;;;;;;103523;1292;60894;-52
2023/10/11 09:45:28;;;;;;;13.90;4.40;;;;;;;;;;103548;1290;61247;-48
2023/10/11 09:47:54;;;;;;;16.50;5.50;;;;;;;;;;103575;1289;60888;-48
2023/10/11 09:50:22;;;;;;;16.50;4.90;;;;;;;;;;103554;1290;60880;-42
2023/10/11 09:52:49;;;;;;;18.30;5.40;;;;;;;;;;103505;1286;60658;-46
2023/10/11 09:55:17;;;;;;;18.60;5.40;;;;;;;;;;103567;1290;60744;-48
2023/10/11 09:57:50;;;;;;;14.80;5.00;;;;;;;;;;103659;1285;60878;-53
2023/10/11 10:06:07;;;;;;;13.80;4.90;;;;;;;;;;87203;1291;1033644;-41
2023/10/11 10:08:32;;;;;;;28.60;5.50;;;;;;;;;;103152;1292;61329;-39
2023/10/11 10:10:58;;;;;;;;;;;;;;;;;;103242;1294;60837;-37
2023/10/11 10:13:25;;;;;;;15.30;5.70;;;;;;;;;;102955;1297;60894;-38
2023/10/11 10:15:52;;;;;;;17.30;5.80;;;;;;;;;;102835;1293;60977;-42
2023/10/11 10:18:21;;;;;;;22.10;6.50;;;;;;;;;;102964;1293;60785;-40
2023/10/11 10:20:46;;;;;;;17.40;5.60;;;;;;;;;;102983;1292;60856;-38
2023/10/11 10:23:14;;;;;;;14.80;5.20;;;;;;;;;;102912;1291;60820;-37
2023/10/11 10:25:46;;;;;;;17.20;6.10;;;;;;;;;;102909;1291;60782;-38
2023/10/11 10:28:31;;;;;;;14.60;6.30;;;;;;;;;;102909;1297;60912;-38
2023/10/11 10:31:19;;;;;;;16.00;6.00;;;;;;;;;;102942;1297;60944;-41
2023/10/11 10:33:52;;;;;;;14.60;5.90;;;;;;;;;;102833;1297;60822;-38
2023/10/11 10:36:17;;;;;;;18.60;6.00;;;;;;;;;;102999;1293;60793;-37
2023/10/11 10:38:58;;;;;;;21.60;6.10;;;;;;;;;;102954;1292;60905;-40
2023/10/11 10:41:27;;;;;;;19.50;5.90;;;;;;;;;;102982;1291;60807;-40
2023/10/11 10:44:11;;;;;;;24.00;6.30;;;;;;;;;;102895;1293;60805;-35
2023/10/11 10:46:50;;;;;;;18.10;5.40;;;;;;;;;;102827;1292;60906;-37
2023/10/11 10:49:17;;;;;;;15.60;5.70;;;;;;;;;;102742;1297;60850;-39
2023/10/11 10:51:47;;;;;;;16.60;5.40;;;;;;;;;;102825;1298;60762;-37
2023/10/11 10:54:17;;;;;;;19.70;5.70;;;;;;;;;;102830;1297;61284;-39
2023/10/11 10:56:46;;;;;;;16.60;5.50;;;;;;;;;;103004;1298;60857;-37
2023/10/11 10:59:12;;;;;;;14.70;5.20;;;;;;;;;;102952;1294;60899;-37
2023/10/11 11:01:37;;;;;;;;;;;;;;;;;;102880;1294;60923;-36
2023/10/11 11:04:07;;;;;;;17.40;6.10;;;;;;;;;;102998;1297;60898;-37
2023/10/11 11:06:39;;;;;;;17.10;5.30;;;;;;;;;;102931;1293;60701;-37
2023/10/11 11:09:05;;;;;;;12.30;5.70;;;;;;;;;;102891;1291;61174;-36
2023/10/11 11:11:35;;;;;;;16.40;5.50;;;;;;;;;;103014;1292;60901;-37
2023/10/11 11:14:08;;;;;;;18.20;5.80;;;;;;;;;;102990;1291;60774;-37
2023/10/11 11:16:34;;;;;;;20.30;5.30;;;;;;;;;;103077;1297;60806;-53
2023/10/11 11:58:10;;;;;;;23.30;5.40;;;;;;;22.58;61.93;99312.35;103069;1289;600040;31
2023/10/11 12:00:38;;;;;;;8.90;4.50;;;;;;;22.37;62.04;99310.70;103041;1303;96728;-31
2023/10/11 12:03:05;;;;;;;8.60;4.40;;;;;;;22.90;60.93;99299.12;102026;1303;60448;-31
2023/10/11 12:05:37;;;;;;;13.20;4.80;;;;;;;23.21;60.07;99301.62;101932;1302;61642;-35
2023/10/11 12:08:04;;;;;;;9.10;4.90;;;;;;;23.18;59.74;99306.19;101433;1303;1002412;-35
2023/10/11 12:10:32;;;;;;;14.50;4.50;;;;;;;23.18;61.55;99303.89;102026;1303;167457;-34
2023/10/11 12:13:05;;;;;;;10.40;4.30;;;;;;;23.15;62.43;99302.14;102248;1306;70937;-34
2023/10/11 12:15:32;;;;;;;7.40;4.20;;;;;;;23.30;62.55;99295.91;102133;1306;60845;-35
2023/10/11 12:17:57;;;;;;;10.90;4.50;;;;;;;23.46;61.84;99295.94;102206;1300;60317;-31
2023/10/11 12:20:27;;;;;;;;;;;;;;;-67.43;23.78;39715.99;100150;1300;1002720;-32
2023/10/11 12:22:53;;;;;;;9.20;4.80;;;;;;;-128.00;-1.00;-1.00;98679;1300;1059175;-34
2023/10/11 12:25:24;;;;;;;7.80;4.50;;;;;;;-128.00;-1.00;-1.00;98788;1300;1003930;-35
2023/10/11 12:27:50;;;;;;;7.90;4.40;;;;;;;-128.00;-1.00;-1.00;98823;1303;1013326;-33
2023/10/11 12:30:22;;;;;;;8.90;4.70;;;;;;;-128.00;-1.00;-1.00;98733;1300;1003473;-34
2023/10/11 12:32:48;;;;;;;16.10;4.90;;;;;;;-128.00;-1.00;-1.00;98703;1301;1047421;-35
2023/10/11 12:35:14;;;;;;;10.20;4.20;;;;;;;-128.00;-1.00;-1.00;98634;1300;1003210;-33
2023/10/11 12:37:40;;;;;;;12.40;5.00;;;;;;;-128.00;-1.00;-1.00;98781;1301;1003189;-35
2023/10/11 12:40:13;;;;;;;9.20;4.80;;;;;;;-128.00;-1.00;-1.00;98724;1300;1013855;-35
2023/10/11 12:42:39;;;;;;;8.20;4.60;;;;;;;-128.00;-1.00;-1.00;98788;1303;1038763;-37
2023/10/11 12:45:07;;;;;;;11.40;4.30;;;;;;;-128.00;-1.00;-1.00;98745;1301;1003507;-34
2023/10/11 12:47:34;;;;;;;9.20;4.80;;;;;;;-128.00;-1.00;-1.00;98776;1300;1059375;-33
2023/10/11 12:50:01;;;;;;;8.90;4.50;;;;;;;-128.00;-1.00;-1.00;98653;1300;1003095;-33
2023/10/11 12:52:30;;;;;;;12.90;4.70;;;;;;;-128.00;-1.00;-1.00;98850;1300;1003733;-33
2023/10/11 12:54:57;;;;;;;11.40;5.00;;;;;;;-128.00;-1.00;-1.00;98692;1300;1012543;-34
2023/10/11 12:57:23;;;;;;;7.80;4.50;;;;;;;-128.00;-1.00;-1.00;98814;1303;1003959;-35
2023/10/11 12:59:49;;;;;;;7.70;4.20;;;;;;;-128.00;-1.00;-1.00;98730;1300;1002314;-33
2023/10/11 13:02:21;;;;;;;9.80;4.20;;;;;;;-128.00;-1.00;-1.00;98895;1300;1002974;-34
2023/10/11 13:04:47;;;;;;;8.30;3.90;;;;;;;-128.00;-1.00;-1.00;98698;1300;1054972;-33
2023/10/11 13:07:16;;;;;;;9.30;3.30;;;;;;;-128.00;-1.00;-1.00;98604;1300;1003299;-34
2023/10/11 13:09:41;;;;;;;11.90;3.70;;;;;;;-128.00;-1.00;-1.00;98726;1300;1013330;-33
2023/10/11 13:12:08;;;;;;;9.80;3.90;;;;;;;-128.00;-1.00;-1.00;98732;1299;1003519;-34
2023/10/11 13:14:35;;;;;;;12.10;3.90;;;;;;;-128.00;-1.00;-1.00;98800;1300;1059316;-33
2023/10/11 13:17:00;;;;;;;7.80;3.80;;;;;;;-128.00;-1.00;-1.00;98864;1300;1004732;-33
2023/10/11 13:19:26;;;;;;;;;;;;;;;-128.00;-1.00;-1.00;98702;1299;1002972;-33
2023/10/11 13:21:56;;;;;;;9.00;3.90;;;;;;;-128.00;-1.00;-1.00;98722;1301;1039305;-34
2023/10/11 13:24:25;;;;;;;8.10;3.70;;;;;;;-128.00;-1.00;-1.00;98760;1300;1046163;-33
2023/10/11 13:26:55;;;;;;;8.00;4.00;;;;;;;-128.00;-1.00;-1.00;98713;1300;1059638;-39
2023/10/11 13:29:21;;;;;;;13.60;4.10;;;;;;;-128.00;-1.00;-1.00;98772;1300;1055939;-33
2023/10/11 13:31:48;;;;;;;12.30;4.00;;;;;;;-128.00;-1.00;-1.00;98641;1300;1002813;-34
2023/10/11 13:34:17;;;;;;;9.30;3.90;;;;;;;-128.00;-1.00;-1.00;98791;1300;1003323;-32
2023/10/11 13:36:42;;;;;;;9.50;3.80;;;;;;;-128.00;-1.00;-1.00;98821;1301;1039085;-34
2023/10/11 13:39:25;;;;;;;10.60;3.60;;;;;;;-128.00;-1.00;-1.00;98683;1299;1003648;-32
2023/10/11 13:41:54;;;;;;;9.00;3.60;;;;;;;-128.00;-1.00;-1.00;98843;1299;1060212;-35
2023/10/11 13:44:21;;;;;;;7.10;3.60;;;;;;;-128.00;-1.00;-1.00;98884;1300;1055906;-34
2023/10/11 13:46:52;;;;;;;9.20;3.50;;;;;;;-128.00;-1.00;-1.00;98766;1300;1003115;-34
2023/10/11 13:49:25;;;;;;;6.10;3.10;;;;;;;-128.00;-1.00;-1.00;98969;1303;1013052;-33
2023/10/11 14:32:59;;;;;;;11.90;3.50;;;;;;;;;;103844;1283;600120;-33
2023/10/11 14:35:26;;;;;;;10.30;3.80;;;;;;;;;;103961;1287;137088;-34
2023/10/11 14:37:51;;;;;;;12.80;3.20;;;;;;;;;;104270;1283;60152;-35
2023/10/11 14:40:16;;;;;;;7.70;3.20;;;;;;;;;;104210;1296;60277;-32
2023/10/11 14:42:42;;;;;;;8.00;3.50;;;;;;;;;;104199;1292;60284;-34
2023/10/11 14:45:11;;;;;;;5.70;3.40;;;;;;;;;;104234;1284;60200;-33
2023/10/11 14:47:37;;;;;;;7.10;3.40;;;;;;;;;;104246;1284;60264;-36
2023/10/11 14:50:03;;;;;;;6.50;3.30;;;;;;;;;;104297;1299;60265;-34
2023/10/11 14:52:28;;;;;;;7.90;3.20;;;;;;;;;;104190;1283;60347;-34
2023/10/11 14:54:54;;;;;;;12.00;3.80;;;;;;;;;;104160;1288;60216;-36
2023/10/11 14:57:21;;;;;;;9.90;3.30;;;;;;;;;;104233;1294;60876;-35
2023/10/11 14:59:47;;;;;;;10.60;3.70;;;;;;;;;;104187;1284;60872;-32
2023/10/11 15:02:12;;;;;;;7.90;3.00;;;;;;;;;;104150;1289;60846;-32
2023/10/11 15:04:37;;;;;;;8.10;3.10;;;;;;;;;;104299;1281;60865;-34
2023/10/11 15:07:06;;;;;;;6.60;3.10;;;;;;;;;;104209;1288;60820;-37
2023/10/11 15:09:33;;;;;;;10.40;3.20;;;;;;;;;;104342;1283;61292;-35
2023/10/11 15:11:59;;;;;;;7.20;2.90;;;;;;;;;;104260;1285;60696;-33
2023/10/11 15:14:24;;;;;;;9.80;3.50;;;;;;;;;;104207;1283;60978;-34
2023/10/11 15:16:49;;;;;;;12.50;2.80;;;;;;;;;;104251;1292;60873;-35
2023/10/11 15:19:15;;;;;;;10.00;3.40;;;;;;;;;;104134;1288;60884;-35
2023/10/11 15:21:40;;;;;;;6.30;3.30;;;;;;;;;;104338;1295;60826;-35
2023/10/11 15:24:07;;;;;;;8.50;3.20;;;;;;;;;;104268;1294;60898;-35
2023/10/11 15:26:35;;;;;;;5.90;3.50;;;;;;;;;;104131;1283;60788;-33
2023/10/11 15:29:02;;;;;;;12.20;3.40;;;;;;;;;;104271;1283;60767;-35
2023/10/11 15:31:30;;;;;;;10.20;4.10;;;;;;;;;;104225;1284;60786;-35
2023/10/11 15:33:58;;;;;;;12.20;3.90;;;;;;;;;;104232;1279;60723;-36
2023/10/11 15:36:23;;;;;;;13.80;3.90;;;;;;;;;;104208;1283;61215;-32
2023/10/11 15:38:49;;;;;;;12.40;4.00;;;;;;;;;;104211;1299;60859;-36
2023/10/11 15:41:16;;;;;;;7.20;3.80;;;;;;;;;;104290;1299;60824;-34
2023/10/11 15:43:41;;;;;;;12.10;4.10;;;;;;;;;;104213;1283;60770;-36
2023/10/11 15:46:09;;;;;;;6.10;3.40;;;;;;;;;;104220;1292;60938;-35
2023/10/11 15:48:35;;;;;;;9.10;3.50;;;;;;;;;;104180;1282;60840;-34
2023/10/11 15:51:04;;;;;;;7.80;3.10;;;;;;;;;;104130;1292;60920;-31
2023/10/11 15:53:32;;;;;;;12.30;3.80;;;;;;;;;;104171;1283;60707;-32
2023/10/11 15:56:01;;;;;;;10.30;4.20;;;;;;;;;;104085;1283;60872;-34
2023/10/11 15:58:27;;;;;;;12.40;3.90;;;;;;;;;;104094;1279;60887;-32
2023/10/11 16:00:52;;;;;;;9.80;4.20;;;;;;;;;;104327;1280;60667;-34
2023/10/11 16:03:18;;;;;;;8.10;3.90;;;;;;;;;;104178;1283;60907;-36
2023/10/11 16:05:47;;;;;;;8.70;3.60;;;;;;;;;;104102;1296;61433;-35
2023/10/11 16:08:14;;;;;;;9.60;4.00;;;;;;;;;;104144;1283;60786;-32
2023/10/11 16:10:39;;;;;;;7.80;4.10;;;;;;;;;;103966;1285;60778;-34
2023/10/11 16:13:04;;;;;;;8.30;4.00;;;;;;;;;;104113;1283;60823;-34
2023/10/11 16:15:30;;;;;;;10.10;4.30;;;;;;;;;;103935;1294;60824;-34
2023/10/11 16:17:55;;;;;;;13.20;4.50;;;;;;;;;;104188;1293;60869;-33
2023/10/11 16:20:20;;;;;;;12.50;4.30;;;;;;;;;;104051;1279;60904;-33
2023/10/11 16:22:46;;;;;;;13.00;5.00;;;;;;;;;;104122;1283;60757;-32
2023/10/11 16:25:12;;;;;;;11.10;4.00;;;;;;;;;;104119;1279;60756;-32
2023/10/11 16:27:38;;;;;;;9.70;4.70;;;;;;;;;;104194;1283;60853;-32
2023/10/11 16:30:05;;;;;;;13.70;4.70;;;;;;;;;;104322;1285;60946;-34